createdAt,value
2019-03-27T00:00:56.607Z,13.45
2019-03-27T00:03:25.309Z,13.68
2019-03-27T00:05:55.233Z,13.30
2019-03-27T00:08:24.242Z,14.70
2019-03-27T00:10:53.278Z,9.20
2019-03-27T00:13:22.236Z,13.53
2019-03-27T00:15:54.516Z,10.23
2019-03-27T00:18:23.506Z,9.48
2019-03-27T00:20:52.462Z,11.75
2019-03-27T00:23:21.504Z,10.68
2019-03-27T00:25:50.475Z,15.68
2019-03-27T00:28:19.460Z,13.18
2019-03-27T00:30:50.650Z,7.20
2019-03-27T00:33:19.680Z,13.83
2019-03-27T00:35:48.633Z,11.22
2019-03-27T00:38:17.720Z,14.78
2019-03-27T00:40:46.750Z,17.10
2019-03-27T00:43:15.774Z,16.20
2019-03-27T00:45:44.808Z,17.00
2019-03-27T00:48:15.884Z,9.10
2019-03-27T00:50:45.010Z,10.15
2019-03-27T00:53:15.605Z,11.20
2019-03-27T00:55:45.633Z,9.10
2019-03-27T01:00:50.072Z,20.08
2019-03-27T01:03:19.036Z,8.03
2019-03-27T01:05:48.006Z,7.45
2019-03-27T01:08:20.348Z,19.27
2019-03-27T01:10:49.379Z,11.97
2019-03-27T01:13:21.185Z,12.95
2019-03-27T01:15:51.918Z,11.28
2019-03-27T01:18:22.506Z,9.10
2019-03-27T01:20:52.062Z,16.85
2019-03-27T01:23:22.526Z,13.50
2019-03-27T01:25:54.633Z,12.80
2019-03-27T01:28:27.898Z,17.17
2019-03-27T01:30:58.482Z,14.15
2019-03-27T01:33:27.498Z,13.58
2019-03-27T01:35:56.524Z,17.45
2019-03-27T01:38:28.977Z,16.52
2019-03-27T01:40:58.325Z,10.65
2019-03-27T01:43:28.540Z,10.70
2019-03-27T01:46:00.732Z,10.40
2019-03-27T01:48:34.971Z,13.38
2019-03-27T01:51:06.922Z,9.93
2019-03-27T01:53:35.900Z,10.08
2019-03-27T01:56:04.917Z,11.55
2019-03-27T01:58:33.994Z,10.50
2019-03-27T02:01:03.217Z,11.33
2019-03-27T02:03:32.263Z,11.80
2019-03-27T02:06:01.275Z,13.50
2019-03-27T02:08:30.566Z,13.32
2019-03-27T02:11:01.303Z,15.78
2019-03-27T02:13:31.263Z,10.55
2019-03-27T02:16:07.276Z,10.88
2019-03-27T02:18:35.437Z,13.20
2019-03-27T02:21:04.587Z,11.75
2019-03-27T02:23:33.691Z,17.43
2019-03-27T02:26:02.615Z,14.45
2019-03-27T02:28:33.207Z,10.23
2019-03-27T02:31:04.938Z,9.48
2019-03-27T02:33:35.362Z,10.48
2019-03-27T02:36:04.794Z,12.95
2019-03-27T02:38:33.765Z,16.20
2019-03-27T02:41:02.767Z,14.87
2019-03-27T02:43:31.732Z,8.35
2019-03-27T02:46:00.698Z,13.38
2019-03-27T02:48:29.754Z,8.73
2019-03-27T02:51:00.856Z,11.30
2019-03-27T02:53:29.905Z,11.08
2019-03-27T02:56:01.002Z,11.60
2019-03-27T02:58:39.161Z,12.45
2019-03-27T03:01:08.182Z,12.35
2019-03-27T03:03:40.092Z,9.15
2019-03-27T03:06:09.048Z,10.25
2019-03-27T03:08:38.036Z,15.85
2019-03-27T03:11:07.076Z,15.43
2019-03-27T03:13:36.318Z,17.23
2019-03-27T03:16:05.593Z,13.50
2019-03-27T03:18:34.612Z,15.35
2019-03-27T03:21:05.488Z,12.45
2019-03-27T03:23:34.433Z,15.80
2019-03-27T03:26:04.191Z,11.05
2019-03-27T03:28:38.517Z,10.05
2019-03-27T03:31:09.799Z,13.62
2019-03-27T03:33:38.832Z,13.45
2019-03-27T03:36:10.145Z,18.92
2019-03-27T03:38:40.290Z,15.08
2019-03-27T03:41:09.255Z,15.32
2019-03-27T03:43:41.355Z,15.53
2019-03-27T03:46:10.403Z,12.93
2019-03-27T03:48:39.359Z,19.30
2019-03-27T03:51:08.751Z,14.87
2019-03-27T03:53:37.920Z,12.93
2019-03-27T03:56:09.439Z,13.17
2019-03-27T03:58:40.639Z,12.23
2019-03-27T04:01:12.995Z,11.78
2019-03-27T04:03:43.840Z,17.00
2019-03-27T04:06:12.798Z,16.23
2019-03-27T04:08:43.389Z,12.60
2019-03-27T04:11:12.419Z,17.55
2019-03-27T04:13:42.976Z,10.35
2019-03-27T04:16:13.507Z,16.48
2019-03-27T04:18:46.770Z,13.05
2019-03-27T04:21:15.850Z,19.95
2019-03-27T04:23:44.821Z,15.20
2019-03-27T04:26:13.943Z,16.48
2019-03-27T04:28:45.225Z,18.13
2019-03-27T04:31:13.539Z,19.77
2019-03-27T04:33:42.572Z,16.82
2019-03-27T04:36:11.611Z,15.45
2019-03-27T04:38:44.646Z,15.98
2019-03-27T04:41:13.698Z,18.05
2019-03-27T04:43:45.269Z,22.32
2019-03-27T04:46:14.261Z,18.25
2019-03-27T04:48:44.311Z,21.50
2019-03-27T04:53:41.418Z,16.95
2019-03-27T04:56:10.391Z,18.50
2019-03-27T04:58:39.383Z,17.12
2019-03-27T05:01:08.479Z,22.73
2019-03-27T05:03:37.493Z,18.62
2019-03-27T05:06:07.703Z,19.12
2019-03-27T05:08:39.862Z,19.77
2019-03-27T05:11:08.833Z,19.20
2019-03-27T05:13:39.417Z,17.95
2019-03-27T05:16:12.734Z,18.48
2019-03-27T05:18:41.713Z,23.18
2019-03-27T05:21:10.858Z,20.35
2019-03-27T05:23:39.826Z,17.50
2019-03-27T05:26:08.817Z,20.05
2019-03-27T05:28:40.970Z,19.65
2019-03-27T05:31:09.915Z,16.20
2019-03-27T05:33:40.162Z,19.45
2019-03-27T05:36:15.342Z,16.32
2019-03-27T05:38:44.385Z,17.07
2019-03-27T05:41:15.595Z,17.65
2019-03-27T05:43:50.234Z,17.98
2019-03-27T05:46:19.179Z,19.62
2019-03-27T05:48:49.242Z,19.45
2019-03-27T05:53:48.059Z,16.52
2019-03-27T05:56:17.024Z,17.42
2019-03-27T05:58:46.056Z,16.82
2019-03-27T06:01:15.014Z,20.50
2019-03-27T06:03:44.718Z,22.15
2019-03-27T06:06:13.705Z,14.75
2019-03-27T06:08:44.275Z,14.87
2019-03-27T06:11:13.234Z,17.42
2019-03-27T06:13:42.206Z,18.12
2019-03-27T06:16:11.206Z,14.68
2019-03-27T06:18:40.203Z,18.40
2019-03-27T06:21:09.288Z,16.87
2019-03-27T06:23:41.222Z,17.07
2019-03-27T06:26:13.382Z,20.68
2019-03-27T06:28:43.411Z,13.38
2019-03-27T06:31:12.821Z,20.08
2019-03-27T06:33:44.516Z,17.60
2019-03-27T06:36:13.481Z,16.97
2019-03-27T06:38:42.662Z,18.62
2019-03-27T06:41:13.709Z,20.33
2019-03-27T06:43:44.232Z,17.23
2019-03-27T06:46:19.337Z,17.35
2019-03-27T06:48:48.313Z,13.00
2019-03-27T06:51:25.431Z,19.37
2019-03-27T06:53:57.444Z,19.52
2019-03-27T06:56:26.437Z,16.07
2019-03-27T06:58:56.941Z,19.73
2019-03-27T07:01:25.971Z,19.25
2019-03-27T07:04:09.850Z,14.60
2019-03-27T07:06:29.895Z,15.95
2019-03-27T07:09:01.609Z,16.07
2019-03-27T07:11:36.789Z,23.00
2019-03-27T07:14:05.937Z,20.05
2019-03-27T07:16:40.618Z,17.65
2019-03-27T07:19:09.591Z,17.00
2019-03-27T07:21:38.557Z,13.95
2019-03-27T07:24:07.537Z,16.87
2019-03-27T07:26:37.818Z,14.63
2019-03-27T07:29:12.087Z,17.48
2019-03-27T07:31:41.059Z,14.38
2019-03-27T07:34:10.049Z,17.50
2019-03-27T07:36:41.392Z,21.05
2019-03-27T07:39:11.456Z,16.73
2019-03-27T07:41:40.843Z,17.62
2019-03-27T07:44:09.869Z,13.78
2019-03-27T07:46:40.466Z,14.35
2019-03-27T07:49:09.421Z,14.63
2019-03-27T07:51:41.466Z,19.25
2019-03-27T07:54:13.630Z,14.63
2019-03-27T07:56:42.582Z,11.38
2019-03-27T07:59:14.703Z,15.75
2019-03-27T08:01:44.910Z,13.13
2019-03-27T08:04:17.730Z,15.43
2019-03-27T08:06:51.840Z,11.70
2019-03-27T08:09:28.274Z,13.72
2019-03-27T08:11:57.292Z,12.58
2019-03-27T08:14:27.553Z,13.13
2019-03-27T08:16:58.142Z,18.67
2019-03-27T08:19:28.664Z,14.45
2019-03-27T08:21:59.184Z,13.05
2019-03-27T08:24:28.153Z,13.83
2019-03-27T08:26:57.104Z,13.95
2019-03-27T08:29:26.117Z,18.67
2019-03-27T08:31:55.132Z,11.50
2019-03-27T08:34:24.648Z,15.70
2019-03-27T08:36:54.870Z,15.88
2019-03-27T08:39:27.090Z,13.53
2019-03-27T08:41:58.143Z,13.95
2019-03-27T08:44:33.281Z,13.35
2019-03-27T08:47:02.353Z,9.90
2019-03-27T08:49:31.901Z,13.13
2019-03-27T08:52:02.394Z,11.22
2019-03-27T08:54:31.515Z,10.40
2019-03-27T08:57:03.506Z,14.50
2019-03-27T08:59:36.375Z,10.15
2019-03-27T09:02:14.556Z,12.15
2019-03-27T09:04:46.550Z,12.37
2019-03-27T09:07:15.727Z,8.33
2019-03-27T09:09:44.681Z,12.03
2019-03-27T09:12:13.685Z,13.32
2019-03-27T09:14:42.636Z,10.05
2019-03-27T09:17:13.730Z,11.57
2019-03-27T09:19:47.923Z,11.03
2019-03-27T09:22:16.997Z,11.88
2019-03-27T09:24:45.945Z,10.20
2019-03-27T09:27:17.727Z,11.28
2019-03-27T09:29:49.095Z,9.38
2019-03-27T09:32:18.068Z,8.75
2019-03-27T09:34:47.039Z,10.63
2019-03-27T09:37:21.221Z,12.68
2019-03-27T09:39:51.807Z,7.97
2019-03-27T09:42:24.114Z,7.28
2019-03-27T09:44:54.157Z,8.70
2019-03-27T09:47:23.589Z,8.03
2019-03-27T09:49:55.265Z,8.38
2019-03-27T09:52:24.289Z,8.18
2019-03-27T09:54:53.315Z,10.17
2019-03-27T09:57:23.525Z,9.90
2019-03-27T09:59:52.481Z,12.13
2019-03-27T10:02:21.433Z,11.90
2019-03-27T10:04:51.512Z,7.17
2019-03-27T10:07:20.488Z,6.03
2019-03-27T10:09:50.474Z,8.63
2019-03-27T10:12:19.640Z,9.18
2019-03-27T10:14:48.621Z,12.00
2019-03-27T10:17:17.661Z,13.77
2019-03-27T10:19:46.718Z,12.33
2019-03-27T10:22:15.703Z,11.53
2019-03-27T10:24:44.950Z,9.80
2019-03-27T10:27:13.920Z,6.85
2019-03-27T10:29:42.884Z,9.83
2019-03-27T10:32:13.332Z,12.13
2019-03-27T10:34:43.075Z,9.73
2019-03-27T10:37:13.842Z,11.63
2019-03-27T10:39:42.804Z,18.00
2019-03-27T10:42:11.802Z,16.40
2019-03-27T10:44:44.056Z,15.43
2019-03-27T10:47:13.122Z,16.05
2019-03-27T10:49:46.362Z,16.70
2019-03-27T10:52:18.392Z,18.50
2019-03-27T10:54:47.354Z,19.67
2019-03-27T10:57:16.382Z,19.37
2019-03-27T10:59:45.332Z,17.10
2019-03-27T11:02:14.344Z,13.35
2019-03-27T11:04:46.340Z,13.25
2019-03-27T11:07:15.266Z,14.63
2019-03-27T11:09:44.208Z,18.03
2019-03-27T11:12:15.020Z,16.37
2019-03-27T11:14:44.012Z,12.07
2019-03-27T11:17:14.267Z,12.30
2019-03-27T11:19:46.470Z,13.28
2019-03-27T11:22:17.683Z,13.45
2019-03-27T11:24:49.710Z,13.08
2019-03-27T11:27:21.813Z,15.40
2019-03-27T11:29:50.839Z,12.60
2019-03-27T11:32:25.985Z,12.60
2019-03-27T11:34:57.897Z,15.70
2019-03-27T11:37:29.401Z,12.80
2019-03-27T11:39:59.926Z,14.03
2019-03-27T11:42:28.963Z,16.27
2019-03-27T11:44:57.902Z,18.70
2019-03-27T11:47:26.847Z,16.83
2019-03-27T11:49:58.055Z,17.70
2019-03-27T11:52:30.006Z,18.27
2019-03-27T11:55:01.807Z,17.87
2019-03-27T11:57:30.777Z,20.72
2019-03-27T12:00:02.986Z,15.95
2019-03-27T12:02:33.909Z,20.37
2019-03-27T12:05:02.875Z,19.80
2019-03-27T12:07:31.864Z,20.27
2019-03-27T12:10:00.975Z,17.77
2019-03-27T12:12:29.949Z,12.85
2019-03-27T12:14:59.996Z,15.53
2019-03-27T12:17:30.962Z,11.80
2019-03-27T12:19:59.676Z,16.10
2019-03-27T12:22:28.663Z,15.97
2019-03-27T12:24:57.707Z,15.03
2019-03-27T12:27:26.757Z,17.17
2019-03-27T12:29:56.187Z,16.07
2019-03-27T12:32:25.261Z,16.32
2019-03-27T12:34:54.262Z,13.98
2019-03-27T12:37:23.277Z,16.67
2019-03-27T12:39:53.757Z,12.50
2019-03-27T12:42:22.763Z,16.80
2019-03-27T12:44:51.712Z,13.33
2019-03-27T12:47:21.254Z,13.23
2019-03-27T12:49:52.150Z,16.60
2019-03-27T12:52:21.114Z,18.50
2019-03-27T12:54:50.235Z,20.57
2019-03-27T12:57:19.240Z,15.95
2019-03-27T12:59:48.274Z,19.02
2019-03-27T13:02:17.200Z,14.77
2019-03-27T13:04:46.137Z,19.47
2019-03-27T13:07:15.110Z,18.73
2019-03-27T13:09:44.483Z,16.33
2019-03-27T13:12:13.459Z,16.12
2019-03-27T13:14:42.385Z,14.83
2019-03-27T13:17:11.493Z,10.07
2019-03-27T13:19:40.484Z,10.93
2019-03-27T13:22:09.527Z,12.17
2019-03-27T13:24:44.806Z,12.50
2019-03-27T13:27:17.772Z,11.05
2019-03-27T13:29:46.742Z,10.78
2019-03-27T13:32:15.696Z,11.93
2019-03-27T13:34:49.294Z,9.27
2019-03-27T13:37:18.261Z,10.88
2019-03-27T13:39:48.470Z,11.00
2019-03-27T13:42:17.629Z,10.80
2019-03-27T13:44:48.699Z,10.32
2019-03-27T13:47:17.679Z,10.08
2019-03-27T13:49:49.322Z,11.33
2019-03-27T13:52:19.439Z,9.65
2019-03-27T13:54:49.608Z,10.72
2019-03-27T13:57:18.533Z,8.90
2019-03-27T13:59:48.848Z,8.70
2019-03-27T14:02:17.921Z,7.97
2019-03-27T14:04:46.897Z,11.10
2019-03-27T14:07:17.897Z,11.25
2019-03-27T14:09:50.251Z,8.05
2019-03-27T14:12:25.327Z,7.65
2019-03-27T14:14:54.294Z,7.53
2019-03-27T14:17:23.229Z,11.67
2019-03-27T14:19:52.212Z,10.45
2019-03-27T14:22:21.169Z,10.53
2019-03-27T14:24:55.586Z,11.08
2019-03-27T14:27:24.557Z,8.55
2019-03-27T14:29:53.528Z,9.15
2019-03-27T14:32:31.543Z,10.13
2019-03-27T14:35:00.521Z,12.10
2019-03-27T14:37:33.371Z,11.67
2019-03-27T14:40:05.485Z,9.10
2019-03-27T14:42:34.464Z,8.93
2019-03-27T14:45:06.231Z,11.88
2019-03-27T14:47:35.761Z,8.05
2019-03-27T14:50:06.292Z,8.18
2019-03-27T14:52:35.315Z,8.85
2019-03-27T14:55:05.859Z,8.77
2019-03-27T14:57:36.363Z,8.43
2019-03-27T15:00:18.065Z,7.62
2019-03-27T15:02:47.181Z,11.35
2019-03-27T15:05:16.203Z,10.00
2019-03-27T15:07:45.122Z,9.03
2019-03-27T15:10:38.164Z,10.27
2019-03-27T15:13:07.262Z,7.15
2019-03-27T15:15:36.254Z,8.70
2019-03-27T15:18:05.694Z,7.85
2019-03-27T15:20:35.860Z,6.87
2019-03-27T15:23:05.030Z,11.25
2019-03-27T15:25:37.319Z,11.05
2019-03-27T15:28:06.301Z,7.20
2019-03-27T15:30:35.390Z,8.10
2019-03-27T15:33:04.352Z,9.13
2019-03-27T15:35:33.347Z,11.68
2019-03-27T15:38:02.282Z,16.10
2019-03-27T15:40:39.013Z,11.65
2019-03-27T15:43:08.037Z,9.80
2019-03-27T15:45:38.470Z,11.97
2019-03-27T15:48:09.082Z,11.03
2019-03-27T15:50:56.826Z,8.68
2019-03-27T15:55:46.615Z,9.63
2019-03-27T15:58:15.585Z,12.28
2019-03-27T16:00:46.082Z,14.68
2019-03-27T16:03:16.647Z,7.42
2019-03-27T16:05:47.884Z,7.53
2019-03-27T16:08:16.846Z,6.30
2019-03-27T16:10:46.214Z,8.98
2019-03-27T16:13:16.754Z,7.72
2019-03-27T16:15:47.011Z,8.18
2019-03-27T16:18:16.804Z,9.53
2019-03-27T16:20:46.193Z,14.10
2019-03-27T16:23:15.168Z,12.43
2019-03-27T16:25:46.268Z,16.02
2019-03-27T16:28:15.226Z,12.82
2019-03-27T16:30:44.784Z,16.42
2019-03-27T16:33:15.217Z,14.35
2019-03-27T16:35:44.186Z,16.20
2019-03-27T16:38:13.201Z,13.50
2019-03-27T16:40:42.813Z,14.85
2019-03-27T16:43:14.141Z,18.85
2019-03-27T16:45:42.497Z,20.35
2019-03-27T16:48:11.547Z,15.43
2019-03-27T16:50:43.391Z,16.32
2019-03-27T16:53:19.838Z,18.87
2019-03-27T16:55:52.190Z,20.70
2019-03-27T16:58:21.179Z,22.48
2019-03-27T17:00:50.146Z,23.15
2019-03-27T17:03:20.939Z,25.45
2019-03-27T17:05:55.385Z,19.80
2019-03-27T17:08:24.366Z,26.87
2019-03-27T17:10:57.631Z,21.82
2019-03-27T17:13:26.697Z,29.70
2019-03-27T17:15:55.721Z,24.12
2019-03-27T17:18:27.934Z,22.00
2019-03-27T17:20:55.579Z,23.47
2019-03-27T17:23:24.733Z,25.53
2019-03-27T17:25:56.897Z,23.83
2019-03-27T17:28:28.167Z,25.12
2019-03-27T17:30:57.125Z,28.05
2019-03-27T17:33:26.513Z,24.90
2019-03-27T17:35:57.093Z,27.40
2019-03-27T17:38:26.131Z,26.05
2019-03-27T17:40:57.671Z,30.92
2019-03-27T17:43:28.287Z,30.12
2019-03-27T17:46:00.801Z,30.82
2019-03-27T17:48:29.831Z,32.75
2019-03-27T17:51:00.422Z,26.82
2019-03-27T17:53:32.210Z,29.63
2019-03-27T17:56:01.984Z,29.82
2019-03-27T17:58:33.363Z,25.20
2019-03-27T18:01:03.701Z,29.05
2019-03-27T18:03:37.569Z,27.05
2019-03-27T18:06:12.767Z,26.82
2019-03-27T18:08:41.776Z,21.75
2019-03-27T18:11:12.843Z,27.07
2019-03-27T18:13:41.810Z,24.20
2019-03-27T18:16:10.805Z,25.27
2019-03-27T18:18:41.228Z,26.20
2019-03-27T18:24:44.478Z,24.35
2019-03-27T18:27:11.371Z,21.17
2019-03-27T18:29:44.021Z,27.52
2019-03-27T18:32:12.990Z,27.67
2019-03-27T18:34:42.046Z,22.30
2019-03-27T18:37:13.860Z,26.02
2019-03-27T18:39:42.922Z,28.32
2019-03-27T18:42:13.249Z,29.23
2019-03-27T18:44:48.335Z,25.05
2019-03-27T18:47:16.236Z,23.27
2019-03-27T18:49:48.022Z,27.73
2019-03-27T18:52:18.688Z,25.80
2019-03-27T18:54:52.302Z,24.95
2019-03-27T18:57:21.432Z,21.70
2019-03-27T18:59:51.528Z,24.72
2019-03-27T19:02:20.496Z,25.88
2019-03-27T19:04:51.990Z,23.40
2019-03-27T19:07:21.114Z,21.35
2019-03-27T19:09:57.122Z,24.67
2019-03-27T19:12:27.602Z,19.65
2019-03-27T19:15:01.290Z,25.32
2019-03-27T19:17:30.466Z,26.20
2019-03-27T19:20:02.226Z,30.20
2019-03-27T19:22:31.574Z,23.83
2019-03-27T19:25:00.749Z,26.35
2019-03-27T19:27:29.691Z,28.47
2019-03-27T19:29:59.062Z,24.72
2019-03-27T19:32:29.658Z,21.35
2019-03-27T19:34:59.163Z,23.27
2019-03-27T19:37:30.362Z,29.37
2019-03-27T19:40:01.260Z,28.45
2019-03-27T19:42:31.177Z,24.65
2019-03-27T19:45:03.537Z,25.95
2019-03-27T19:47:32.609Z,23.77
2019-03-27T19:50:04.142Z,22.93
2019-03-27T19:55:01.336Z,23.42
2019-03-27T19:57:32.269Z,25.85
2019-03-27T20:00:10.239Z,19.45
2019-03-27T20:02:39.692Z,21.95
2019-03-27T20:05:10.329Z,23.20
2019-03-27T20:07:39.375Z,23.73
2019-03-27T20:10:08.909Z,26.60
2019-03-27T20:12:38.920Z,23.20
2019-03-27T20:17:39.365Z,21.30
2019-03-27T20:20:09.807Z,21.37
2019-03-27T20:22:40.399Z,23.45
2019-03-27T20:25:09.850Z,21.60
2019-03-27T20:27:42.181Z,20.43
2019-03-27T20:30:20.243Z,25.90
2019-03-27T20:32:49.212Z,23.38
2019-03-27T20:35:22.657Z,20.62
2019-03-27T20:37:48.873Z,24.40
2019-03-27T20:40:20.846Z,21.15
2019-03-27T20:42:52.258Z,24.80
2019-03-27T20:45:22.152Z,24.18
2019-03-27T20:47:52.874Z,25.25
2019-03-27T20:50:21.923Z,24.90
2019-03-27T20:52:54.046Z,27.22
2019-03-27T20:55:30.240Z,25.82
2019-03-27T20:57:54.466Z,27.52
2019-03-27T21:00:26.519Z,26.57
2019-03-27T21:02:57.107Z,26.07
2019-03-27T21:05:26.751Z,28.83
2019-03-27T21:07:55.770Z,30.57
2019-03-27T21:10:27.332Z,32.88
2019-03-27T21:12:56.441Z,29.20
2019-03-27T21:15:25.451Z,28.80
2019-03-27T21:18:03.320Z,32.10
2019-03-27T21:20:37.926Z,31.55
2019-03-27T21:23:09.826Z,28.07
2019-03-27T21:25:38.886Z,31.55
2019-03-27T21:28:09.411Z,32.25
2019-03-27T21:30:38.444Z,34.20
2019-03-27T21:33:08.430Z,35.78
2019-03-27T21:35:43.463Z,32.48
2019-03-27T21:38:13.032Z,35.55
2019-03-27T21:40:42.034Z,31.33
2019-03-27T21:43:13.951Z,34.05
2019-03-27T21:45:46.112Z,41.45
2019-03-27T21:48:15.115Z,32.55
2019-03-27T21:50:44.683Z,36.73
2019-03-27T21:53:17.920Z,34.10
2019-03-27T21:55:47.127Z,34.92
2019-03-27T21:58:16.094Z,33.57
2019-03-27T22:00:45.151Z,29.27
2019-03-27T22:03:14.175Z,36.03
2019-03-27T22:05:43.181Z,31.05
2019-03-27T22:08:14.216Z,29.40
2019-03-27T22:10:43.301Z,30.45
2019-03-27T22:13:12.283Z,30.12
2019-03-27T22:15:41.295Z,28.07
2019-03-27T22:18:10.360Z,39.40
2019-03-27T22:20:41.457Z,33.28
2019-03-27T22:23:14.438Z,32.65
2019-03-27T22:25:42.406Z,36.08
2019-03-27T22:28:12.648Z,31.13
2019-03-27T22:30:44.934Z,32.35
2019-03-27T22:33:16.050Z,33.73
2019-03-27T22:35:45.184Z,32.48
2019-03-27T22:38:19.854Z,30.48
2019-03-27T22:40:52.073Z,28.17
2019-03-27T22:43:24.266Z,31.80
2019-03-27T22:45:56.122Z,35.48
2019-03-27T22:48:25.430Z,32.88
2019-03-27T22:50:54.428Z,35.03
2019-03-27T22:53:23.466Z,39.15
2019-03-27T22:55:52.452Z,33.75
2019-03-27T22:58:24.272Z,32.53
2019-03-27T23:03:23.380Z,39.78
2019-03-27T23:05:55.214Z,35.38
2019-03-27T23:08:24.218Z,36.03
2019-03-27T23:10:53.290Z,36.45
2019-03-27T23:13:24.732Z,39.40
2019-03-27T23:15:53.793Z,38.50
2019-03-27T23:18:23.056Z,36.42
2019-03-27T23:20:56.687Z,37.45
2019-03-27T23:23:25.804Z,33.20
2019-03-27T23:26:03.034Z,36.27
2019-03-27T23:28:25.691Z,38.48
2019-03-27T23:30:54.727Z,36.53
2019-03-27T23:33:27.023Z,39.38
2019-03-27T23:35:56.090Z,36.55
2019-03-27T23:38:25.169Z,43.75
2019-03-27T23:40:54.334Z,41.85
2019-03-27T23:43:24.048Z,44.90
2019-03-27T23:45:53.168Z,41.13
2019-03-27T23:48:24.316Z,43.00
2019-03-27T23:50:53.374Z,41.98
2019-03-27T23:53:22.449Z,43.60
2019-03-27T23:55:53.341Z,50.15
2019-03-27T23:58:26.881Z,42.65
